sensor_id;sensor_type;location;lat;lon;timestamp;P1;durP1;ratioP1;P2;durP2;ratioP2
23588;SDS011;11972;48.078;11.876;2023-04-04T00:00:47;1.70;;;1.20;;
23588;SDS011;11972;48.078;11.876;2023-04-04T00:04:47;2.53;;;1.10;;
23588;SDS011;11972;48.078;11.876;2023-04-04T00:08:47;4.43;;;2.20;;
23588;SDS011;11972;48.078;11.876;2023-04-04T00:12:47;2.47;;;1.20;;
23588;SDS011;11972;48.078;11.876;2023-04-04T00:16:48;1.98;;;1.50;;
23588;SDS011;11972;48.078;11.876;2023-04-04T00:20:48;2.17;;;0.82;;
23588;SDS011;11972;48.078;11.876;2023-04-04T00:24:48;3.58;;;1.30;;
23588;SDS011;11972;48.078;11.876;2023-04-04T00:28:49;2.50;;;1.40;;
23588;SDS011;11972;48.078;11.876;2023-04-04T00:32:49;5.25;;;3.15;;
23588;SDS011;11972;48.078;11.876;2023-04-04T00:36:49;3.22;;;1.70;;
23588;SDS011;11972;48.078;11.876;2023-04-04T00:40:50;2.08;;;1.73;;
23588;SDS011;11972;48.078;11.876;2023-04-04T00:44:51;3.35;;;1.70;;
23588;SDS011;11972;48.078;11.876;2023-04-04T00:48:52;3.30;;;1.63;;
23588;SDS011;11972;48.078;11.876;2023-04-04T00:52:53;6.55;;;4.18;;
23588;SDS011;11972;48.078;11.876;2023-04-04T00:56:54;4.70;;;2.80;;
23588;SDS011;11972;48.078;11.876;2023-04-04T01:00:54;6.05;;;3.78;;
23588;SDS011;11972;48.078;11.876;2023-04-04T01:04:55;2.58;;;1.50;;
23588;SDS011;11972;48.078;11.876;2023-04-04T01:08:55;1.52;;;1.20;;
23588;SDS011;11972;48.078;11.876;2023-04-04T01:12:56;2.83;;;1.45;;
23588;SDS011;11972;48.078;11.876;2023-04-04T01:16:56;3.78;;;1.40;;
23588;SDS011;11972;48.078;11.876;2023-04-04T01:24:59;1.53;;;1.23;;
23588;SDS011;11972;48.078;11.876;2023-04-04T01:29:00;2.72;;;1.40;;
23588;SDS011;11972;48.078;11.876;2023-04-04T01:33:07;4.60;;;1.40;;
23588;SDS011;11972;48.078;11.876;2023-04-04T01:37:26;4.07;;;1.50;;
23588;SDS011;11972;48.078;11.876;2023-04-04T01:41:33;3.78;;;1.80;;
23588;SDS011;11972;48.078;11.876;2023-04-04T01:45:34;1.80;;;1.65;;
23588;SDS011;11972;48.078;11.876;2023-04-04T01:49:35;2.63;;;1.60;;
23588;SDS011;11972;48.078;11.876;2023-04-04T01:53:35;2.10;;;1.40;;
23588;SDS011;11972;48.078;11.876;2023-04-04T01:57:36;2.25;;;1.60;;
23588;SDS011;11972;48.078;11.876;2023-04-04T02:01:36;3.25;;;1.70;;
23588;SDS011;11972;48.078;11.876;2023-04-04T02:05:37;3.58;;;1.45;;
23588;SDS011;11972;48.078;11.876;2023-04-04T02:09:37;3.70;;;1.73;;
23588;SDS011;11972;48.078;11.876;2023-04-04T02:13:38;2.75;;;1.50;;
23588;SDS011;11972;48.078;11.876;2023-04-04T02:17:45;3.80;;;1.73;;
23588;SDS011;11972;48.078;11.876;2023-04-04T02:21:46;1.90;;;1.30;;
23588;SDS011;11972;48.078;11.876;2023-04-04T02:25:48;2.30;;;1.27;;
23588;SDS011;11972;48.078;11.876;2023-04-04T02:29:49;2.67;;;1.83;;
23588;SDS011;11972;48.078;11.876;2023-04-04T02:33:50;4.47;;;1.63;;
23588;SDS011;11972;48.078;11.876;2023-04-04T02:37:50;1.90;;;1.33;;
23588;SDS011;11972;48.078;11.876;2023-04-04T02:41:50;2.38;;;1.30;;
23588;SDS011;11972;48.078;11.876;2023-04-04T02:45:51;3.70;;;1.70;;
23588;SDS011;11972;48.078;11.876;2023-04-04T02:49:51;1.33;;;1.20;;
23588;SDS011;11972;48.078;11.876;2023-04-04T02:53:51;2.13;;;1.70;;
23588;SDS011;11972;48.078;11.876;2023-04-04T02:57:52;2.80;;;1.73;;
23588;SDS011;11972;48.078;11.876;2023-04-04T03:01:52;1.90;;;1.52;;
23588;SDS011;11972;48.078;11.876;2023-04-04T03:05:52;4.55;;;1.80;;
23588;SDS011;11972;48.078;11.876;2023-04-04T03:09:53;2.40;;;1.35;;
23588;SDS011;11972;48.078;11.876;2023-04-04T03:13:53;3.47;;;1.40;;
23588;SDS011;11972;48.078;11.876;2023-04-04T03:17:54;2.90;;;1.33;;
23588;SDS011;11972;48.078;11.876;2023-04-04T03:21:55;3.85;;;1.40;;
23588;SDS011;11972;48.078;11.876;2023-04-04T03:25:56;2.08;;;1.50;;
23588;SDS011;11972;48.078;11.876;2023-04-04T03:29:57;2.55;;;1.80;;
23588;SDS011;11972;48.078;11.876;2023-04-04T03:33:58;3.75;;;1.50;;
23588;SDS011;11972;48.078;11.876;2023-04-04T03:38:00;2.33;;;1.50;;
23588;SDS011;11972;48.078;11.876;2023-04-04T03:42:02;3.30;;;1.83;;
23588;SDS011;11972;48.078;11.876;2023-04-04T03:46:03;2.90;;;1.90;;
23588;SDS011;11972;48.078;11.876;2023-04-04T03:50:04;2.13;;;1.77;;
23588;SDS011;11972;48.078;11.876;2023-04-04T03:54:05;3.25;;;1.98;;
23588;SDS011;11972;48.078;11.876;2023-04-04T03:58:06;7.20;;;2.55;;
23588;SDS011;11972;48.078;11.876;2023-04-04T04:02:06;3.55;;;2.13;;
23588;SDS011;11972;48.078;11.876;2023-04-04T04:06:06;7.25;;;5.60;;
23588;SDS011;11972;48.078;11.876;2023-04-04T04:10:07;7.60;;;5.53;;
23588;SDS011;11972;48.078;11.876;2023-04-04T04:14:08;4.13;;;2.90;;
23588;SDS011;11972;48.078;11.876;2023-04-04T04:18:08;8.60;;;4.55;;
23588;SDS011;11972;48.078;11.876;2023-04-04T04:22:08;4.13;;;2.60;;
23588;SDS011;11972;48.078;11.876;2023-04-04T04:26:09;8.48;;;2.30;;
23588;SDS011;11972;48.078;11.876;2023-04-04T04:30:09;3.95;;;2.78;;
23588;SDS011;11972;48.078;11.876;2023-04-04T04:34:10;2.92;;;2.05;;
23588;SDS011;11972;48.078;11.876;2023-04-04T04:38:10;2.75;;;1.90;;
23588;SDS011;11972;48.078;11.876;2023-04-04T04:42:11;6.28;;;4.05;;
23588;SDS011;11972;48.078;11.876;2023-04-04T04:46:11;11.27;;;6.53;;
23588;SDS011;11972;48.078;11.876;2023-04-04T04:50:12;4.15;;;1.67;;
23588;SDS011;11972;48.078;11.876;2023-04-04T04:54:12;2.97;;;1.70;;
23588;SDS011;11972;48.078;11.876;2023-04-04T04:58:12;2.35;;;1.80;;
23588;SDS011;11972;48.078;11.876;2023-04-04T05:02:15;3.20;;;1.88;;
23588;SDS011;11972;48.078;11.876;2023-04-04T05:06:16;3.08;;;2.00;;
23588;SDS011;11972;48.078;11.876;2023-04-04T05:10:16;3.80;;;2.22;;
23588;SDS011;11972;48.078;11.876;2023-04-04T05:14:16;6.07;;;5.03;;
23588;SDS011;11972;48.078;11.876;2023-04-04T05:18:17;6.15;;;3.78;;
23588;SDS011;11972;48.078;11.876;2023-04-04T05:22:17;9.05;;;5.85;;
23588;SDS011;11972;48.078;11.876;2023-04-04T05:26:18;3.05;;;2.50;;
23588;SDS011;11972;48.078;11.876;2023-04-04T05:30:18;5.43;;;4.35;;
23588;SDS011;11972;48.078;11.876;2023-04-04T05:34:19;10.05;;;5.40;;
23588;SDS011;11972;48.078;11.876;2023-04-04T05:38:19;9.25;;;4.60;;
23588;SDS011;11972;48.078;11.876;2023-04-04T05:42:20;5.70;;;3.72;;
23588;SDS011;11972;48.078;11.876;2023-04-04T05:46:21;8.50;;;5.78;;
23588;SDS011;11972;48.078;11.876;2023-04-04T05:50:21;15.10;;;8.00;;
23588;SDS011;11972;48.078;11.876;2023-04-04T05:54:22;5.88;;;2.40;;
23588;SDS011;11972;48.078;11.876;2023-04-04T05:58:22;3.08;;;2.05;;
23588;SDS011;11972;48.078;11.876;2023-04-04T06:02:23;2.20;;;1.83;;
23588;SDS011;11972;48.078;11.876;2023-04-04T06:06:23;3.13;;;2.15;;
23588;SDS011;11972;48.078;11.876;2023-04-04T06:10:23;3.63;;;1.80;;
23588;SDS011;11972;48.078;11.876;2023-04-04T06:14:24;2.33;;;1.58;;
23588;SDS011;11972;48.078;11.876;2023-04-04T06:18:24;2.75;;;2.03;;
23588;SDS011;11972;48.078;11.876;2023-04-04T06:22:24;2.53;;;1.73;;
23588;SDS011;11972;48.078;11.876;2023-04-04T06:26:25;3.50;;;1.55;;
23588;SDS011;11972;48.078;11.876;2023-04-04T06:30:25;4.18;;;2.13;;
23588;SDS011;11972;48.078;11.876;2023-04-04T06:34:26;2.38;;;2.10;;
23588;SDS011;11972;48.078;11.876;2023-04-04T06:38:27;2.17;;;1.70;;
23588;SDS011;11972;48.078;11.876;2023-04-04T06:42:28;5.88;;;3.53;;
23588;SDS011;11972;48.078;11.876;2023-04-04T06:46:29;2.80;;;1.80;;
23588;SDS011;11972;48.078;11.876;2023-04-04T06:50:32;3.15;;;1.95;;
23588;SDS011;11972;48.078;11.876;2023-04-04T06:54:32;2.42;;;2.03;;
23588;SDS011;11972;48.078;11.876;2023-04-04T06:58:33;2.85;;;2.17;;
23588;SDS011;11972;48.078;11.876;2023-04-04T07:02:33;3.88;;;2.10;;
23588;SDS011;11972;48.078;11.876;2023-04-04T07:06:34;3.17;;;2.03;;
23588;SDS011;11972;48.078;11.876;2023-04-04T07:10:34;3.72;;;2.47;;
23588;SDS011;11972;48.078;11.876;2023-04-04T07:14:34;2.47;;;1.92;;
23588;SDS011;11972;48.078;11.876;2023-04-04T07:18:35;5.32;;;2.50;;
23588;SDS011;11972;48.078;11.876;2023-04-04T07:22:36;3.60;;;1.83;;
23588;SDS011;11972;48.078;11.876;2023-04-04T07:26:37;2.17;;;1.83;;
23588;SDS011;11972;48.078;11.876;2023-04-04T07:30:37;3.58;;;2.20;;
23588;SDS011;11972;48.078;11.876;2023-04-04T07:34:38;3.05;;;1.85;;
23588;SDS011;11972;48.078;11.876;2023-04-04T07:38:38;6.80;;;3.38;;
23588;SDS011;11972;48.078;11.876;2023-04-04T07:42:42;2.85;;;2.03;;
23588;SDS011;11972;48.078;11.876;2023-04-04T07:46:44;3.85;;;2.20;;
23588;SDS011;11972;48.078;11.876;2023-04-04T07:50:44;4.65;;;3.10;;
23588;SDS011;11972;48.078;11.876;2023-04-04T07:54:45;3.60;;;2.33;;
23588;SDS011;11972;48.078;11.876;2023-04-04T07:58:46;3.45;;;1.80;;
23588;SDS011;11972;48.078;11.876;2023-04-04T08:02:50;6.63;;;3.47;;
23588;SDS011;11972;48.078;11.876;2023-04-04T08:06:52;2.90;;;1.63;;
23588;SDS011;11972;48.078;11.876;2023-04-04T08:10:52;3.03;;;1.80;;
23588;SDS011;11972;48.078;11.876;2023-04-04T08:14:53;2.25;;;1.73;;
23588;SDS011;11972;48.078;11.876;2023-04-04T08:18:53;3.80;;;2.10;;
23588;SDS011;11972;48.078;11.876;2023-04-04T08:22:53;2.15;;;1.83;;
23588;SDS011;11972;48.078;11.876;2023-04-04T08:26:53;3.63;;;1.85;;
23588;SDS011;11972;48.078;11.876;2023-04-04T08:30:54;3.47;;;2.75;;
23588;SDS011;11972;48.078;11.876;2023-04-04T08:34:55;2.17;;;1.65;;
23588;SDS011;11972;48.078;11.876;2023-04-04T08:38:55;3.25;;;2.35;;
23588;SDS011;11972;48.078;11.876;2023-04-04T08:42:55;2.92;;;1.95;;
23588;SDS011;11972;48.078;11.876;2023-04-04T08:46:58;3.00;;;2.58;;
23588;SDS011;11972;48.078;11.876;2023-04-04T08:51:00;2.15;;;1.95;;
23588;SDS011;11972;48.078;11.876;2023-04-04T08:55:05;2.22;;;2.03;;
23588;SDS011;11972;48.078;11.876;2023-04-04T08:59:07;2.63;;;1.90;;
23588;SDS011;11972;48.078;11.876;2023-04-04T09:03:14;2.50;;;1.65;;
23588;SDS011;11972;48.078;11.876;2023-04-04T09:07:29;1.65;;;1.42;;
23588;SDS011;11972;48.078;11.876;2023-04-04T09:11:31;1.77;;;1.33;;
23588;SDS011;11972;48.078;11.876;2023-04-04T09:15:32;1.90;;;1.60;;
23588;SDS011;11972;48.078;11.876;2023-04-04T09:19:34;2.30;;;2.10;;
23588;SDS011;11972;48.078;11.876;2023-04-04T09:23:35;3.60;;;1.50;;
23588;SDS011;11972;48.078;11.876;2023-04-04T09:27:35;2.42;;;1.70;;
23588;SDS011;11972;48.078;11.876;2023-04-04T09:31:35;1.90;;;1.70;;
23588;SDS011;11972;48.078;11.876;2023-04-04T09:35:37;4.05;;;2.42;;
23588;SDS011;11972;48.078;11.876;2023-04-04T09:39:38;2.25;;;1.85;;
23588;SDS011;11972;48.078;11.876;2023-04-04T09:43:39;2.30;;;2.10;;
23588;SDS011;11972;48.078;11.876;2023-04-04T09:47:40;2.58;;;2.00;;
23588;SDS011;11972;48.078;11.876;2023-04-04T09:51:41;2.10;;;1.90;;
23588;SDS011;11972;48.078;11.876;2023-04-04T09:55:51;2.47;;;1.60;;
23588;SDS011;11972;48.078;11.876;2023-04-04T09:59:59;2.67;;;1.80;;
23588;SDS011;11972;48.078;11.876;2023-04-04T10:04:00;4.28;;;2.08;;
23588;SDS011;11972;48.078;11.876;2023-04-04T10:08:13;4.40;;;2.85;;
23588;SDS011;11972;48.078;11.876;2023-04-04T10:12:16;2.10;;;1.90;;
23588;SDS011;11972;48.078;11.876;2023-04-04T10:16:20;6.00;;;2.33;;
23588;SDS011;11972;48.078;11.876;2023-04-04T10:20:23;2.20;;;2.00;;
23588;SDS011;11972;48.078;11.876;2023-04-04T10:24:24;5.88;;;1.98;;
23588;SDS011;11972;48.078;11.876;2023-04-04T10:28:25;2.20;;;1.88;;
23588;SDS011;11972;48.078;11.876;2023-04-04T10:32:31;2.30;;;2.00;;
23588;SDS011;11972;48.078;11.876;2023-04-04T10:36:44;1.92;;;1.70;;
23588;SDS011;11972;48.078;11.876;2023-04-04T10:40:44;2.65;;;2.17;;
23588;SDS011;11972;48.078;11.876;2023-04-04T10:44:48;2.92;;;1.73;;
23588;SDS011;11972;48.078;11.876;2023-04-04T10:48:50;2.38;;;1.70;;
23588;SDS011;11972;48.078;11.876;2023-04-04T10:52:50;1.95;;;1.80;;
23588;SDS011;11972;48.078;11.876;2023-04-04T10:56:52;4.28;;;2.03;;
23588;SDS011;11972;48.078;11.876;2023-04-04T11:00:54;3.17;;;1.70;;
23588;SDS011;11972;48.078;11.876;2023-04-04T11:04:58;2.38;;;1.98;;
23588;SDS011;11972;48.078;11.876;2023-04-04T11:09:50;1.83;;;1.73;;
23588;SDS011;11972;48.078;11.876;2023-04-04T11:14:02;1.77;;;1.60;;
23588;SDS011;11972;48.078;11.876;2023-04-04T11:18:04;2.78;;;2.20;;
23588;SDS011;11972;48.078;11.876;2023-04-04T11:22:05;4.45;;;1.90;;
23588;SDS011;11972;48.078;11.876;2023-04-04T11:26:05;2.65;;;2.00;;
23588;SDS011;11972;48.078;11.876;2023-04-04T11:30:11;2.63;;;1.95;;
23588;SDS011;11972;48.078;11.876;2023-04-04T11:34:14;2.83;;;1.80;;
23588;SDS011;11972;48.078;11.876;2023-04-04T11:38:28;3.10;;;2.30;;
23588;SDS011;11972;48.078;11.876;2023-04-04T11:42:32;2.35;;;1.80;;
23588;SDS011;11972;48.078;11.876;2023-04-04T11:46:36;2.90;;;2.03;;
23588;SDS011;11972;48.078;11.876;2023-04-04T11:50:38;2.85;;;1.92;;
23588;SDS011;11972;48.078;11.876;2023-04-04T11:54:39;2.28;;;2.00;;
23588;SDS011;11972;48.078;11.876;2023-04-04T11:58:44;2.97;;;1.70;;
23588;SDS011;11972;48.078;11.876;2023-04-04T12:02:46;3.00;;;1.90;;
23588;SDS011;11972;48.078;11.876;2023-04-04T12:06:48;2.08;;;1.77;;
23588;SDS011;11972;48.078;11.876;2023-04-04T12:10:50;2.17;;;1.92;;
23588;SDS011;11972;48.078;11.876;2023-04-04T12:14:52;2.22;;;1.88;;
23588;SDS011;11972;48.078;11.876;2023-04-04T12:18:53;2.60;;;1.75;;
23588;SDS011;11972;48.078;11.876;2023-04-04T12:22:55;4.65;;;1.50;;
23588;SDS011;11972;48.078;11.876;2023-04-04T12:26:55;5.00;;;2.58;;
23588;SDS011;11972;48.078;11.876;2023-04-04T12:31:00;1.60;;;1.50;;
23588;SDS011;11972;48.078;11.876;2023-04-04T12:35:04;2.42;;;1.80;;
23588;SDS011;11972;48.078;11.876;2023-04-04T12:39:06;2.72;;;1.80;;
23588;SDS011;11972;48.078;11.876;2023-04-04T12:43:08;1.98;;;1.60;;
23588;SDS011;11972;48.078;11.876;2023-04-04T12:47:09;3.83;;;2.00;;
23588;SDS011;11972;48.078;11.876;2023-04-04T12:51:14;1.73;;;1.63;;
23588;SDS011;11972;48.078;11.876;2023-04-04T12:55:18;2.22;;;2.00;;
23588;SDS011;11972;48.078;11.876;2023-04-04T12:59:21;2.58;;;1.70;;
23588;SDS011;11972;48.078;11.876;2023-04-04T13:03:23;3.10;;;1.65;;
23588;SDS011;11972;48.078;11.876;2023-04-04T13:07:28;2.75;;;1.90;;
23588;SDS011;11972;48.078;11.876;2023-04-04T13:15:58;3.60;;;2.08;;
23588;SDS011;11972;48.078;11.876;2023-04-04T13:19:59;2.28;;;1.70;;
23588;SDS011;11972;48.078;11.876;2023-04-04T13:24:00;2.13;;;1.70;;
23588;SDS011;11972;48.078;11.876;2023-04-04T13:28:01;3.25;;;1.80;;
23588;SDS011;11972;48.078;11.876;2023-04-04T13:32:02;5.25;;;2.08;;
23588;SDS011;11972;48.078;11.876;2023-04-04T13:36:03;2.72;;;1.83;;
23588;SDS011;11972;48.078;11.876;2023-04-04T13:40:04;2.13;;;1.95;;
23588;SDS011;11972;48.078;11.876;2023-04-04T13:44:05;1.83;;;1.65;;
23588;SDS011;11972;48.078;11.876;2023-04-04T13:48:06;2.67;;;1.60;;
23588;SDS011;11972;48.078;11.876;2023-04-04T13:52:06;2.30;;;1.70;;
23588;SDS011;11972;48.078;11.876;2023-04-04T13:56:07;3.67;;;1.70;;
23588;SDS011;11972;48.078;11.876;2023-04-04T14:00:08;2.72;;;1.50;;
23588;SDS011;11972;48.078;11.876;2023-04-04T14:04:09;2.28;;;1.80;;
23588;SDS011;11972;48.078;11.876;2023-04-04T14:08:09;2.03;;;1.83;;
23588;SDS011;11972;48.078;11.876;2023-04-04T14:12:09;1.80;;;1.60;;
23588;SDS011;11972;48.078;11.876;2023-04-04T14:16:10;2.55;;;2.00;;
23588;SDS011;11972;48.078;11.876;2023-04-04T14:20:10;2.33;;;2.13;;
23588;SDS011;11972;48.078;11.876;2023-04-04T14:24:11;2.20;;;1.85;;
23588;SDS011;11972;48.078;11.876;2023-04-04T14:28:11;1.90;;;1.67;;
23588;SDS011;11972;48.078;11.876;2023-04-04T14:32:12;1.95;;;1.75;;
23588;SDS011;11972;48.078;11.876;2023-04-04T14:36:13;2.53;;;1.80;;
23588;SDS011;11972;48.078;11.876;2023-04-04T14:40:14;2.03;;;1.75;;
23588;SDS011;11972;48.078;11.876;2023-04-04T14:44:14;2.13;;;1.60;;
23588;SDS011;11972;48.078;11.876;2023-04-04T14:48:15;3.92;;;1.75;;
23588;SDS011;11972;48.078;11.876;2023-04-04T14:52:15;2.10;;;1.90;;
23588;SDS011;11972;48.078;11.876;2023-04-04T14:56:16;2.40;;;1.80;;
23588;SDS011;11972;48.078;11.876;2023-04-04T15:00:16;1.92;;;1.40;;
23588;SDS011;11972;48.078;11.876;2023-04-04T15:04:19;2.00;;;1.75;;
23588;SDS011;11972;48.078;11.876;2023-04-04T15:08:20;2.33;;;1.88;;
23588;SDS011;11972;48.078;11.876;2023-04-04T15:12:20;1.90;;;1.50;;
23588;SDS011;11972;48.078;11.876;2023-04-04T15:16:20;1.70;;;1.58;;
23588;SDS011;11972;48.078;11.876;2023-04-04T15:20:20;2.60;;;1.60;;
23588;SDS011;11972;48.078;11.876;2023-04-04T15:24:21;2.08;;;1.70;;
23588;SDS011;11972;48.078;11.876;2023-04-04T15:28:21;2.10;;;1.90;;
23588;SDS011;11972;48.078;11.876;2023-04-04T15:32:22;2.38;;;1.80;;
23588;SDS011;11972;48.078;11.876;2023-04-04T15:36:22;2.00;;;1.63;;
23588;SDS011;11972;48.078;11.876;2023-04-04T15:40:25;1.75;;;1.65;;
23588;SDS011;11972;48.078;11.876;2023-04-04T15:44:26;2.92;;;1.90;;
23588;SDS011;11972;48.078;11.876;2023-04-04T15:48:26;2.50;;;1.60;;
23588;SDS011;11972;48.078;11.876;2023-04-04T15:52:26;2.38;;;1.50;;
23588;SDS011;11972;48.078;11.876;2023-04-04T15:56:27;2.33;;;1.60;;
23588;SDS011;11972;48.078;11.876;2023-04-04T16:00:28;1.50;;;1.30;;
23588;SDS011;11972;48.078;11.876;2023-04-04T16:04:28;2.20;;;1.90;;
23588;SDS011;11972;48.078;11.876;2023-04-04T16:08:28;3.00;;;1.60;;
23588;SDS011;11972;48.078;11.876;2023-04-04T16:12:29;2.73;;;1.70;;
23588;SDS011;11972;48.078;11.876;2023-04-04T16:16:29;2.50;;;1.63;;
23588;SDS011;11972;48.078;11.876;2023-04-04T16:20:29;2.30;;;1.80;;
23588;SDS011;11972;48.078;11.876;2023-04-04T16:24:30;2.85;;;1.80;;
23588;SDS011;11972;48.078;11.876;2023-04-04T16:28:30;2.33;;;1.98;;
23588;SDS011;11972;48.078;11.876;2023-04-04T16:32:31;4.15;;;1.80;;
23588;SDS011;11972;48.078;11.876;2023-04-04T16:36:33;2.55;;;1.85;;
23588;SDS011;11972;48.078;11.876;2023-04-04T16:40:33;2.92;;;1.65;;
23588;SDS011;11972;48.078;11.876;2023-04-04T16:44:34;1.85;;;1.75;;
23588;SDS011;11972;48.078;11.876;2023-04-04T16:48:34;1.77;;;1.67;;
23588;SDS011;11972;48.078;11.876;2023-04-04T16:52:35;2.08;;;1.60;;
23588;SDS011;11972;48.078;11.876;2023-04-04T16:56:36;2.80;;;1.70;;
23588;SDS011;11972;48.078;11.876;2023-04-04T17:00:41;3.88;;;2.00;;
23588;SDS011;11972;48.078;11.876;2023-04-04T17:04:41;2.10;;;1.60;;
23588;SDS011;11972;48.078;11.876;2023-04-04T17:08:43;1.83;;;1.70;;
23588;SDS011;11972;48.078;11.876;2023-04-04T17:12:48;2.17;;;1.98;;
23588;SDS011;11972;48.078;11.876;2023-04-04T17:16:48;2.20;;;2.00;;
23588;SDS011;11972;48.078;11.876;2023-04-04T17:20:52;2.70;;;1.85;;
23588;SDS011;11972;48.078;11.876;2023-04-04T17:24:56;2.08;;;1.52;;
23588;SDS011;11972;48.078;11.876;2023-04-04T17:28:56;4.55;;;2.03;;
23588;SDS011;11972;48.078;11.876;2023-04-04T17:32:59;2.22;;;1.65;;
23588;SDS011;11972;48.078;11.876;2023-04-04T17:37:03;4.80;;;3.60;;
23588;SDS011;11972;48.078;11.876;2023-04-04T17:41:04;2.75;;;1.98;;
23588;SDS011;11972;48.078;11.876;2023-04-04T17:45:04;1.70;;;1.38;;
23588;SDS011;11972;48.078;11.876;2023-04-04T17:49:07;1.80;;;1.55;;
23588;SDS011;11972;48.078;11.876;2023-04-04T17:53:09;3.60;;;3.25;;
23588;SDS011;11972;48.078;11.876;2023-04-04T17:57:09;2.10;;;1.70;;
23588;SDS011;11972;48.078;11.876;2023-04-04T18:01:10;2.97;;;2.70;;
23588;SDS011;11972;48.078;11.876;2023-04-04T18:05:10;2.08;;;1.88;;
23588;SDS011;11972;48.078;11.876;2023-04-04T18:09:12;2.00;;;1.80;;
23588;SDS011;11972;48.078;11.876;2023-04-04T18:13:13;2.42;;;1.48;;
23588;SDS011;11972;48.078;11.876;2023-04-04T18:17:17;4.20;;;3.72;;
23588;SDS011;11972;48.078;11.876;2023-04-04T18:21:20;2.03;;;1.42;;
23588;SDS011;11972;48.078;11.876;2023-04-04T18:25:20;1.73;;;1.30;;
23588;SDS011;11972;48.078;11.876;2023-04-04T18:29:21;1.85;;;1.60;;
23588;SDS011;11972;48.078;11.876;2023-04-04T18:33:21;2.90;;;1.55;;
23588;SDS011;11972;48.078;11.876;2023-04-04T18:37:28;2.70;;;1.90;;
23588;SDS011;11972;48.078;11.876;2023-04-04T18:41:29;1.80;;;1.60;;
23588;SDS011;11972;48.078;11.876;2023-04-04T18:45:32;1.88;;;1.63;;
23588;SDS011;11972;48.078;11.876;2023-04-04T18:49:33;1.45;;;1.33;;
23588;SDS011;11972;48.078;11.876;2023-04-04T18:53:35;1.85;;;1.63;;
23588;SDS011;11972;48.078;11.876;2023-04-04T18:57:35;6.53;;;2.78;;
23588;SDS011;11972;48.078;11.876;2023-04-04T19:01:39;4.68;;;2.80;;
23588;SDS011;11972;48.078;11.876;2023-04-04T19:05:46;7.38;;;5.78;;
23588;SDS011;11972;48.078;11.876;2023-04-04T19:09:52;14.15;;;8.05;;
23588;SDS011;11972;48.078;11.876;2023-04-04T19:13:54;2.88;;;2.67;;
23588;SDS011;11972;48.078;11.876;2023-04-04T19:17:54;2.70;;;2.42;;
23588;SDS011;11972;48.078;11.876;2023-04-04T19:21:55;3.75;;;3.08;;
23588;SDS011;11972;48.078;11.876;2023-04-04T19:25:58;3.67;;;3.30;;
23588;SDS011;11972;48.078;11.876;2023-04-04T19:30:03;4.93;;;3.78;;
23588;SDS011;11972;48.078;11.876;2023-04-04T19:34:30;11.38;;;5.18;;
23588;SDS011;11972;48.078;11.876;2023-04-04T19:38:31;9.13;;;4.85;;
23588;SDS011;11972;48.078;11.876;2023-04-04T19:42:33;9.10;;;4.97;;
23588;SDS011;11972;48.078;11.876;2023-04-04T19:46:34;7.32;;;4.90;;
23588;SDS011;11972;48.078;11.876;2023-04-04T19:50:40;9.55;;;5.35;;
23588;SDS011;11972;48.078;11.876;2023-04-04T19:54:41;2.88;;;2.42;;
23588;SDS011;11972;48.078;11.876;2023-04-04T19:58:44;4.43;;;3.47;;
23588;SDS011;11972;48.078;11.876;2023-04-04T20:02:55;4.82;;;2.85;;
23588;SDS011;11972;48.078;11.876;2023-04-04T20:07:04;5.03;;;3.83;;
23588;SDS011;11972;48.078;11.876;2023-04-04T20:11:05;4.45;;;4.05;;
23588;SDS011;11972;48.078;11.876;2023-04-04T20:15:06;6.20;;;5.65;;
23588;SDS011;11972;48.078;11.876;2023-04-04T20:19:13;7.03;;;2.72;;
23588;SDS011;11972;48.078;11.876;2023-04-04T20:23:16;3.72;;;2.25;;
23588;SDS011;11972;48.078;11.876;2023-04-04T20:27:20;8.88;;;7.85;;
23588;SDS011;11972;48.078;11.876;2023-04-04T20:31:22;3.97;;;3.45;;
23588;SDS011;11972;48.078;11.876;2023-04-04T20:35:26;3.72;;;3.38;;
23588;SDS011;11972;48.078;11.876;2023-04-04T20:43:41;5.57;;;4.30;;
23588;SDS011;11972;48.078;11.876;2023-04-04T20:47:48;4.03;;;2.72;;
23588;SDS011;11972;48.078;11.876;2023-04-04T20:51:53;3.75;;;2.83;;
23588;SDS011;11972;48.078;11.876;2023-04-04T20:55:53;4.55;;;3.17;;
23588;SDS011;11972;48.078;11.876;2023-04-04T20:59:53;3.58;;;2.55;;
23588;SDS011;11972;48.078;11.876;2023-04-04T21:03:54;5.68;;;3.50;;
23588;SDS011;11972;48.078;11.876;2023-04-04T21:07:57;10.60;;;6.93;;
23588;SDS011;11972;48.078;11.876;2023-04-04T21:11:58;5.45;;;3.95;;
23588;SDS011;11972;48.078;11.876;2023-04-04T21:16:00;9.48;;;6.28;;
23588;SDS011;11972;48.078;11.876;2023-04-04T21:20:13;9.73;;;6.32;;
23588;SDS011;11972;48.078;11.876;2023-04-04T21:24:15;8.10;;;4.45;;
23588;SDS011;11972;48.078;11.876;2023-04-04T21:28:16;3.42;;;2.60;;
23588;SDS011;11972;48.078;11.876;2023-04-04T21:32:16;16.38;;;11.48;;
23588;SDS011;11972;48.078;11.876;2023-04-04T21:40:28;6.45;;;5.78;;
23588;SDS011;11972;48.078;11.876;2023-04-04T21:44:30;6.72;;;4.43;;
23588;SDS011;11972;48.078;11.876;2023-04-04T21:48:30;5.40;;;4.80;;
23588;SDS011;11972;48.078;11.876;2023-04-04T21:52:31;7.22;;;4.18;;
23588;SDS011;11972;48.078;11.876;2023-04-04T21:56:31;5.22;;;4.38;;
23588;SDS011;11972;48.078;11.876;2023-04-04T22:00:32;8.82;;;6.55;;
23588;SDS011;11972;48.078;11.876;2023-04-04T22:04:32;6.30;;;5.10;;
23588;SDS011;11972;48.078;11.876;2023-04-04T22:08:33;10.27;;;5.30;;
23588;SDS011;11972;48.078;11.876;2023-04-04T22:12:33;4.00;;;3.60;;
23588;SDS011;11972;48.078;11.876;2023-04-04T22:16:39;4.88;;;4.07;;
23588;SDS011;11972;48.078;11.876;2023-04-04T22:20:45;3.70;;;3.40;;
23588;SDS011;11972;48.078;11.876;2023-04-04T22:24:46;3.47;;;2.90;;
23588;SDS011;11972;48.078;11.876;2023-04-04T22:28:49;8.63;;;4.95;;
23588;SDS011;11972;48.078;11.876;2023-04-04T22:32:50;3.92;;;2.58;;
23588;SDS011;11972;48.078;11.876;2023-04-04T22:36:50;4.45;;;3.30;;
23588;SDS011;11972;48.078;11.876;2023-04-04T22:40:54;5.20;;;3.35;;
23588;SDS011;11972;48.078;11.876;2023-04-04T22:44:55;4.88;;;4.10;;
23588;SDS011;11972;48.078;11.876;2023-04-04T22:48:56;19.33;;;10.48;;
23588;SDS011;11972;48.078;11.876;2023-04-04T22:53:03;11.88;;;7.93;;
23588;SDS011;11972;48.078;11.876;2023-04-04T22:57:03;10.70;;;6.88;;
23588;SDS011;11972;48.078;11.876;2023-04-04T23:01:04;10.25;;;6.97;;
23588;SDS011;11972;48.078;11.876;2023-04-04T23:05:05;5.15;;;4.65;;
23588;SDS011;11972;48.078;11.876;2023-04-04T23:09:07;4.00;;;3.60;;
23588;SDS011;11972;48.078;11.876;2023-04-04T23:13:07;4.70;;;3.50;;
23588;SDS011;11972;48.078;11.876;2023-04-04T23:17:08;6.50;;;5.10;;
23588;SDS011;11972;48.078;11.876;2023-04-04T23:21:08;7.97;;;6.30;;
23588;SDS011;11972;48.078;11.876;2023-04-04T23:25:08;8.38;;;6.18;;
23588;SDS011;11972;48.078;11.876;2023-04-04T23:29:09;8.27;;;6.50;;
23588;SDS011;11972;48.078;11.876;2023-04-04T23:33:09;9.88;;;6.82;;
23588;SDS011;11972;48.078;11.876;2023-04-04T23:37:10;8.25;;;5.30;;
23588;SDS011;11972;48.078;11.876;2023-04-04T23:41:10;6.57;;;5.10;;
23588;SDS011;11972;48.078;11.876;2023-04-04T23:45:10;6.03;;;4.70;;
23588;SDS011;11972;48.078;11.876;2023-04-04T23:49:11;5.15;;;3.75;;
23588;SDS011;11972;48.078;11.876;2023-04-04T23:53:12;4.03;;;3.10;;
23588;SDS011;11972;48.078;11.876;2023-04-04T23:57:12;4.70;;;3.10;;
